Time;durP1;ratioP1;P1;durP2;ratioP2;P2;SDS_P1;SDS_P2;PMS_P1;PMS_P2;Temp;Humidity;BMP_temperature;BMP_pressure;BME280_temperature;BME280_humidity;BME280_pressure;Samples;Min_cycle;Max_cycle;Signal;HPM_P1;HPM_P2
2023/05/22 00:01:37;;;;;;;17.65;14.40;;;;;17.50;98234.00;;;;5033558;28;20045;-64
2023/05/22 00:04:04;;;;;;;16.05;14.38;;;;;17.40;98230.00;;;;5033376;28;20050;-64
2023/05/22 00:06:32;;;;;;;17.98;14.88;;;;;17.40;98236.00;;;;5033276;28;20569;-64
2023/05/22 00:08:59;;;;;;;16.05;13.98;;;;;17.50;98233.00;;;;5032936;28;20491;-64
2023/05/22 00:11:26;;;;;;;15.88;13.68;;;;;17.60;98229.00;;;;5015590;28;20145;-65
2023/05/22 00:13:52;;;;;;;16.65;14.85;;;;;17.50;98232.00;;;;5033088;28;20042;-64
2023/05/22 00:16:19;;;;;;;16.10;14.13;;;;;17.40;98232.00;;;;5033146;28;20080;-64
2023/05/22 00:18:46;;;;;;;16.75;14.95;;;;;17.30;98229.00;;;;5032957;28;20133;-64
2023/05/22 00:21:13;;;;;;;16.40;14.57;;;;;17.30;98228.00;;;;5032898;28;20045;-64
2023/05/22 00:23:40;;;;;;;16.40;14.55;;;;;17.20;98231.00;;;;5032964;28;20087;-64
2023/05/22 00:26:06;;;;;;;17.67;14.57;;;;;17.10;98232.00;;;;5031691;28;20057;-64
2023/05/22 00:28:33;;;;;;;17.27;15.07;;;;;17.00;98222.00;;;;5031901;28;20113;-64
2023/05/22 00:31:00;;;;;;;16.25;13.68;;;;;17.00;98231.00;;;;5032850;28;20052;-65
2023/05/22 00:33:26;;;;;;;16.30;14.60;;;;;17.10;98225.00;;;;5031605;28;20045;-65
2023/05/22 00:35:53;;;;;;;16.58;14.32;;;;;17.20;98226.00;;;;5032680;28;20042;-65
2023/05/22 00:38:31;;;;;;;16.33;14.05;;;;;17.20;98222.00;;;;5032661;28;20397;-64
2023/05/22 00:40:59;;;;;;;17.02;14.55;;;;;17.10;98220.00;;;;5032770;28;20037;-65
2023/05/22 00:43:26;;;;;;;17.02;14.10;;;;;17.10;98227.00;;;;5032651;28;20103;-65
2023/05/22 00:45:53;;;;;;;16.55;13.63;;;;;17.10;98228.00;;;;5032655;28;20057;-65
2023/05/22 00:48:21;;;;;;;17.63;15.07;;;;;17.00;98220.00;;;;5034171;28;20439;-65
2023/05/22 00:50:52;;;;;;;19.77;15.25;;;;;17.00;98226.00;;;;5032590;28;20076;-65
2023/05/22 00:53:20;;;;;;;16.55;14.80;;;;;17.00;98215.00;;;;5033238;28;20509;-65
2023/05/22 00:55:47;;;;;;;18.38;14.35;;;;;17.00;98223.00;;;;5032662;28;20045;-65
2023/05/22 00:58:16;;;;;;;17.70;14.98;;;;;17.10;98218.00;;;;5033558;28;20160;-65
2023/05/22 01:00:45;;;;;;;16.20;14.13;;;;;17.00;98220.00;;;;5033377;28;20072;-65
2023/05/22 01:03:12;;;;;;;16.10;14.02;;;;;17.10;98219.00;;;;5031587;28;20053;-69
2023/05/22 01:05:40;;;;;;;17.42;14.30;;;;;17.00;98233.00;;;;5032250;28;20080;-65
2023/05/22 01:08:07;;;;;;;19.02;14.32;;;;;16.80;98229.00;;;;5032273;28;20049;-64
2023/05/22 01:10:36;;;;;;;14.80;13.30;;;;;16.70;98228.00;;;;5032162;28;20595;-65
2023/05/22 01:13:27;;;;;;;18.33;14.00;;;;;16.70;98227.00;;;;5032282;28;20507;-65
2023/05/22 01:16:08;;;;;;;16.33;13.30;;;;;16.70;98223.00;;;;5032221;28;20439;-65
2023/05/22 01:18:43;;;;;;;15.75;14.02;;;;;16.80;98219.00;;;;5030986;28;20163;-65
2023/05/22 01:21:44;;;;;;;17.90;14.43;;;;;16.70;98221.00;;;;5031939;28;20441;-65
2023/05/22 01:24:40;;;;;;;16.52;13.52;;;;;16.60;98220.00;;;;5030853;28;20055;-65
2023/05/22 01:27:41;;;;;;;16.50;13.82;;;;;16.50;98216.00;;;;5030887;28;20152;-67
2023/05/22 01:30:43;;;;;;;16.88;14.00;;;;;16.40;98220.00;;;;5029614;28;20041;-64
2023/05/22 01:33:14;;;;;;;16.20;13.82;;;;;16.40;98215.00;;;;5030958;28;20077;-64
2023/05/22 01:35:45;;;;;;;16.38;14.18;;;;;16.40;98215.00;;;;5030724;28;20510;-64
2023/05/22 01:38:12;;;;;;;15.30;13.40;;;;;16.30;98215.00;;;;5031960;28;20076;-64
2023/05/22 01:40:39;;;;;;;18.30;14.10;;;;;16.40;98216.00;;;;5032428;28;20042;-64
2023/05/22 01:43:07;;;;;;;16.10;13.82;;;;;16.30;98224.00;;;;5034838;28;20502;-65
2023/05/22 01:45:33;;;;;;;16.98;13.85;;;;;16.40;98226.00;;;;5034938;28;20443;-64
2023/05/22 01:48:01;;;;;;;15.80;13.88;;;;;16.30;98222.00;;;;5034900;28;20049;-64
2023/05/22 01:50:28;;;;;;;14.68;13.07;;;;;16.30;98218.00;;;;5034534;28;20045;-64
2023/05/22 01:53:14;;;;;;;14.80;13.23;;;;;16.30;98219.00;;;;5034846;28;20045;-64
2023/05/22 01:55:54;;;;;;;17.35;13.15;;;;;16.10;98218.00;;;;5035830;28;20042;-64
2023/05/22 01:58:27;;;;;;;15.55;13.63;;;;;16.10;98229.00;;;;5018371;28;20095;-64
2023/05/22 02:00:59;;;;;;;16.10;13.63;;;;;16.20;98219.00;;;;5035169;28;20396;-64
2023/05/22 02:03:30;;;;;;;14.20;12.70;;;;;16.30;98224.00;;;;5034982;28;20045;-64
2023/05/22 02:06:00;;;;;;;18.27;14.55;;;;;16.40;98220.00;;;;5036584;28;20134;-64
2023/05/22 02:08:28;;;;;;;15.63;12.77;;;;;16.50;98220.00;;;;5036990;28;20095;-64
2023/05/22 02:10:55;;;;;;;15.38;13.55;;;;;16.50;98218.00;;;;5035167;28;20072;-64
2023/05/22 02:13:22;;;;;;;15.10;12.52;;;;;16.60;98227.00;;;;5035136;28;20056;-64
2023/05/22 02:15:50;;;;;;;16.77;13.32;;;;;16.60;98225.00;;;;5036268;28;20095;-64
2023/05/22 02:18:16;;;;;;;16.42;14.52;;;;;16.60;98224.00;;;;5035351;28;20056;-65
2023/05/22 02:20:45;;;;;;;18.95;13.95;;;;;16.50;98225.00;;;;5035443;28;20041;-64
2023/05/22 02:23:12;;;;;;;15.45;13.73;;;;;16.30;98218.00;;;;5018409;28;20056;-65
2023/05/22 02:25:38;;;;;;;17.52;14.60;;;;;16.20;98219.00;;;;5034863;28;20053;-65
2023/05/22 02:28:05;;;;;;;16.45;14.75;;;;;16.10;98213.00;;;;5036503;28;20148;-64
2023/05/22 02:30:32;;;;;;;16.77;15.00;;;;;16.10;98209.00;;;;5034195;28;20414;-65
2023/05/22 02:32:58;;;;;;;15.55;13.93;;;;;16.20;98214.00;;;;5034472;28;20092;-64
2023/05/22 02:35:25;;;;;;;20.23;14.63;;;;;16.30;98214.00;;;;5035505;28;20052;-64
2023/05/22 02:37:52;;;;;;;16.30;14.10;;;;;16.30;98210.00;;;;5034792;28;20534;-65
2023/05/22 02:40:19;;;;;;;16.27;14.30;;;;;16.20;98212.00;;;;5034336;28;20137;-65
2023/05/22 02:42:45;;;;;;;18.15;14.35;;;;;16.20;98210.00;;;;5034048;28;20050;-65
2023/05/22 02:45:12;;;;;;;17.08;14.35;;;;;16.00;98204.00;;;;5034268;28;20046;-65
2023/05/22 02:47:40;;;;;;;17.55;15.00;;;;;15.80;98213.00;;;;5017977;28;20046;-65
2023/05/22 02:50:07;;;;;;;16.58;14.77;;;;;15.80;98212.00;;;;5038874;28;20068;-65
2023/05/22 02:52:34;;;;;;;15.88;14.23;;;;;15.90;98212.00;;;;5041202;28;20049;-65
2023/05/22 02:55:00;;;;;;;21.42;16.25;;;;;15.90;98214.00;;;;5036567;28;20087;-65
2023/05/22 02:57:27;;;;;;;16.52;14.70;;;;;15.80;98219.00;;;;5033829;28;20584;-65
2023/05/22 02:59:53;;;;;;;17.98;15.07;;;;;15.70;98207.00;;;;5033592;28;20611;-65
2023/05/22 03:02:20;;;;;;;18.27;15.10;;;;;15.60;98213.00;;;;5034272;28;20056;-65
2023/05/22 03:04:47;;;;;;;17.48;15.13;;;;;15.60;98216.00;;;;5034904;28;20064;-65
2023/05/22 03:07:13;;;;;;;21.77;13.70;;;;;15.60;98212.00;;;;5033554;28;20052;-64
2023/05/22 03:09:40;;;;;;;17.50;14.20;;;;;15.50;98214.00;;;;5033633;28;20049;-65
2023/05/22 03:12:07;;;;;;;16.40;14.52;;;;;15.60;98212.00;;;;5034108;28;20046;-65
2023/05/22 03:14:34;;;;;;;16.80;14.23;;;;;15.60;98213.00;;;;5033290;28;20498;-65
2023/05/22 03:17:01;;;;;;;16.58;14.57;;;;;15.50;98210.00;;;;5033583;28;20407;-65
2023/05/22 03:19:27;;;;;;;16.35;14.65;;;;;15.50;98207.00;;;;5016685;28;20072;-65
2023/05/22 03:21:54;;;;;;;19.65;14.98;;;;;15.50;98203.00;;;;5033481;28;20075;-65
2023/05/22 03:24:21;;;;;;;16.30;14.00;;;;;15.50;98206.00;;;;5033455;28;20068;-65
2023/05/22 03:26:47;;;;;;;19.25;14.20;;;;;15.50;98205.00;;;;5033951;28;20414;-65
2023/05/22 03:29:20;;;;;;;15.85;14.15;;;;;15.60;98207.00;;;;5017472;28;20045;-65
2023/05/22 03:31:47;;;;;;;16.40;14.40;;;;;15.60;98212.00;;;;5033655;28;20041;-65
2023/05/22 03:34:15;;;;;;;24.00;17.73;;;;;15.60;98211.00;;;;5033532;28;20077;-65
2023/05/22 03:36:44;;;;;;;16.90;15.13;;;;;15.50;98207.00;;;;5017548;28;20045;-65
2023/05/22 03:39:13;;;;;;;19.00;15.80;;;;;15.50;98212.00;;;;5033411;28;20069;-65
2023/05/22 03:41:48;;;;;;;16.20;14.50;;;;;15.40;98213.00;;;;5033876;28;20045;-65
2023/05/22 03:44:15;;;;;;;16.05;14.15;;;;;15.50;98218.00;;;;5033834;28;20061;-65
2023/05/22 03:46:42;;;;;;;17.13;14.88;;;;;15.50;98206.00;;;;5032622;28;20084;-65
2023/05/22 03:49:09;;;;;;;17.02;14.32;;;;;15.50;98218.00;;;;5033700;28;20397;-65
2023/05/22 03:51:35;;;;;;;17.33;15.02;;;;;15.60;98213.00;;;;5034121;28;20041;-65
2023/05/22 03:54:02;;;;;;;19.40;14.73;;;;;15.60;98207.00;;;;5033786;28;20552;-64
2023/05/22 03:56:29;;;;;;;19.33;15.25;;;;;15.60;98212.00;;;;5032254;28;20046;-64
2023/05/22 03:58:55;;;;;;;19.85;15.30;;;;;15.70;98215.00;;;;5032063;28;20140;-64
2023/05/22 04:01:22;;;;;;;20.25;15.75;;;;;15.90;98209.00;;;;5032342;28;20072;-64
2023/05/22 04:03:49;;;;;;;18.13;15.70;;;;;16.00;98211.00;;;;5032119;28;20080;-65
2023/05/22 04:06:16;;;;;;;21.40;15.25;;;;;15.90;98216.00;;;;5033458;28;20052;-65
2023/05/22 04:08:43;;;;;;;18.20;15.52;;;;;15.90;98219.00;;;;5033946;28;20437;-65
2023/05/22 04:11:09;;;;;;;20.73;17.42;;;;;16.00;98209.00;;;;5033020;28;20041;-64
2023/05/22 04:13:36;;;;;;;25.25;20.08;;;;;16.10;98216.00;;;;5033324;28;20091;-63
2023/05/22 04:16:03;;;;;;;17.95;15.25;;;;;16.10;98215.00;;;;5031856;28;20147;-64
2023/05/22 04:18:30;;;;;;;20.73;15.02;;;;;16.00;98214.00;;;;5033080;28;20049;-64
2023/05/22 04:20:56;;;;;;;21.83;16.70;;;;;15.90;98213.00;;;;5031721;28;20092;-64
2023/05/22 04:23:23;;;;;;;16.30;14.32;;;;;16.00;98219.00;;;;5031882;28;20065;-64
2023/05/22 04:25:50;;;;;;;22.90;16.50;;;;;16.20;98216.00;;;;5015579;28;20426;-64
2023/05/22 04:28:21;;;;;;;19.85;16.25;;;;;16.30;98216.00;;;;5033135;28;20037;-66
2023/05/22 04:30:48;;;;;;;19.25;15.00;;;;;16.30;98220.00;;;;5033012;28;20041;-64
2023/05/22 04:33:16;;;;;;;18.40;15.18;;;;;16.20;98214.00;;;;5031908;28;20057;-65
2023/05/22 04:35:43;;;;;;;17.40;14.75;;;;;16.20;98211.00;;;;5032897;28;20041;-63
2023/05/22 04:38:10;;;;;;;21.27;14.93;;;;;16.30;98216.00;;;;5031710;28;20503;-65
2023/05/22 04:40:36;;;;;;;16.27;14.55;;;;;16.30;98214.00;;;;5032906;28;20041;-66
2023/05/22 04:43:04;;;;;;;17.73;15.38;;;;;16.30;98222.00;;;;5031584;28;20041;-64
2023/05/22 04:45:34;;;;;;;17.40;14.90;;;;;16.20;98219.00;;;;5031812;28;20077;-64
2023/05/22 04:48:02;;;;;;;17.55;15.32;;;;;16.20;98226.00;;;;5031661;28;20041;-65
2023/05/22 04:50:33;;;;;;;19.40;14.85;;;;;16.30;98225.00;;;;5031277;28;20136;-67
2023/05/22 04:53:02;;;;;;;18.08;15.32;;;;;16.30;98226.00;;;;5031718;28;20045;-64
2023/05/22 04:55:32;;;;;;;20.13;15.20;;;;;16.40;98225.00;;;;5032134;28;20136;-65
2023/05/22 04:57:59;;;;;;;17.20;15.18;;;;;16.50;98223.00;;;;5045563;28;20065;-63
2023/05/22 05:00:27;;;;;;;18.00;14.98;;;;;16.60;98224.00;;;;5050340;28;20049;-65
2023/05/22 05:02:54;;;;;;;18.77;15.85;;;;;16.60;98217.00;;;;5049691;28;20403;-65
2023/05/22 05:05:21;;;;;;;18.17;14.48;;;;;16.70;98219.00;;;;5050597;28;20071;-65
2023/05/22 05:07:48;;;;;;;16.60;14.70;;;;;16.80;98218.00;;;;5047113;28;20144;-65
2023/05/22 05:10:16;;;;;;;18.85;14.82;;;;;16.90;98236.00;;;;5047396;28;20065;-65
2023/05/22 05:12:43;;;;;;;15.75;13.70;;;;;17.00;98225.00;;;;5046170;28;20104;-64
2023/05/22 05:15:10;;;;;;;17.83;14.05;;;;;17.00;98231.00;;;;5044134;28;20049;-66
2023/05/22 05:17:37;;;;;;;15.68;13.73;;;;;17.00;98230.00;;;;5038257;28;20045;-65
2023/05/22 05:20:06;;;;;;;19.83;14.90;;;;;17.10;98224.00;;;;5039891;28;20457;-64
2023/05/22 05:22:33;;;;;;;20.35;15.55;;;;;17.00;98224.00;;;;5032094;28;20056;-65
2023/05/22 05:25:02;;;;;;;21.17;14.82;;;;;17.00;98222.00;;;;5031676;28;20069;-66
2023/05/22 05:27:32;;;;;;;18.95;15.57;;;;;17.10;98224.00;;;;5032719;28;20041;-65
2023/05/22 05:30:00;;;;;;;18.58;15.70;;;;;17.30;98222.00;;;;5031880;28;20087;-65
2023/05/22 05:32:39;;;;;;;18.65;16.05;;;;;17.60;98233.00;;;;5031414;28;20469;-65
2023/05/22 05:35:23;;;;;;;23.73;18.65;;;;;17.70;98235.00;;;;5032196;28;20207;-65
2023/05/22 05:38:00;;;;;;;20.55;16.00;;;;;17.80;98232.00;;;;5032394;28;20057;-65
2023/05/22 05:40:28;;;;;;;18.63;15.95;;;;;17.80;98229.00;;;;5032123;28;20045;-65
2023/05/22 05:42:55;;;;;;;19.60;16.15;;;;;17.80;98245.00;;;;5032863;28;20129;-65
2023/05/22 05:45:25;;;;;;;19.23;16.17;;;;;17.80;98241.00;;;;5016940;28;20404;-65
2023/05/22 05:47:52;;;;;;;18.15;15.95;;;;;17.80;98243.00;;;;5035505;28;20045;-65
2023/05/22 05:50:19;;;;;;;20.98;15.43;;;;;18.00;98248.00;;;;5021186;28;20049;-66
2023/05/22 05:52:46;;;;;;;20.30;15.85;;;;;18.30;98251.00;;;;5036911;28;20053;-65
2023/05/22 05:55:16;;;;;;;18.55;15.07;;;;;18.50;98250.00;;;;5038973;28;20099;-66
2023/05/22 05:57:42;;;;;;;17.88;14.93;;;;;18.70;98249.00;;;;5039837;28;20116;-64
2023/05/22 06:00:14;;;;;;;21.23;15.45;;;;;18.90;98250.00;;;;5036020;28;20470;-65
2023/05/22 06:02:42;;;;;;;17.35;15.00;;;;;19.00;98250.00;;;;5032219;28;20107;-64
2023/05/22 06:05:22;;;;;;;20.35;16.13;;;;;19.00;98252.00;;;;5030673;28;20144;-64
2023/05/22 06:07:57;;;;;;;24.02;18.77;;;;;18.90;98258.00;;;;5030691;28;20053;-65
2023/05/22 06:10:23;;;;;;;18.88;16.88;;;;;19.00;98261.00;;;;5030296;28;20041;-65
2023/05/22 06:13:01;;;;;;;20.45;17.40;;;;;19.20;98257.00;;;;5030433;28;20202;-65
2023/05/22 06:15:29;;;;;;;20.90;15.95;;;;;19.50;98264.00;;;;5030335;28;20523;-65
2023/05/22 06:17:56;;;;;;;20.90;16.25;;;;;19.40;98257.00;;;;5030676;28;20057;-64
2023/05/22 06:20:24;;;;;;;19.25;16.25;;;;;19.30;98249.00;;;;5030300;28;20441;-64
2023/05/22 06:22:50;;;;;;;18.23;16.23;;;;;19.30;98247.00;;;;5030504;28;20145;-64
2023/05/22 06:25:17;;;;;;;21.45;16.95;;;;;19.50;98261.00;;;;5031786;28;20436;-65
2023/05/22 06:27:46;;;;;;;17.70;15.80;;;;;19.70;98261.00;;;;5032384;28;20049;-65
2023/05/22 06:30:15;;;;;;;18.73;16.50;;;;;19.80;98258.00;;;;5033611;28;20187;-65
2023/05/22 06:33:03;;;;;;;18.67;16.58;;;;;20.00;98264.00;;;;5034264;28;20049;-63
2023/05/22 06:35:30;;;;;;;21.85;17.52;;;;;20.20;98256.00;;;;5035272;28;20103;-64
2023/05/22 06:37:57;;;;;;;19.45;15.90;;;;;20.30;98249.00;;;;5033989;28;20080;-64
2023/05/22 06:40:25;;;;;;;19.02;16.60;;;;;20.50;98253.00;;;;5033812;28;20481;-64
2023/05/22 06:42:57;;;;;;;17.52;15.20;;;;;20.60;98259.00;;;;5033857;28;20486;-64
2023/05/22 06:45:42;;;;;;;18.85;16.25;;;;;20.70;98252.00;;;;5033939;28;20053;-65
2023/05/22 06:48:18;;;;;;;20.48;16.63;;;;;20.80;98252.00;;;;5039320;28;20410;-64
2023/05/22 06:51:11;;;;;;;18.83;15.93;;;;;20.90;98248.00;;;;5036039;28;20228;-64
2023/05/22 06:53:39;;;;;;;18.30;16.23;;;;;21.00;98252.00;;;;5036471;28;20054;-64
2023/05/22 06:56:13;;;;;;;;;;;;;21.10;98258.00;;;;5034732;28;20053;-64
2023/05/22 06:59:03;;;;;;;17.17;15.38;;;;;21.20;98259.00;;;;5034370;28;19932;-64
2023/05/22 07:02:00;;;;;;;17.17;15.32;;;;;21.30;98263.00;;;;5034656;28;20056;-64
2023/05/22 07:04:45;;;;;;;18.73;16.77;;;;;21.40;98269.00;;;;5035054;28;20528;-64
2023/05/22 07:07:17;;;;;;;22.48;15.73;;;;;21.50;98281.00;;;;5033423;28;20049;-64
2023/05/22 07:09:44;;;;;;;19.65;15.07;;;;;21.60;98263.00;;;;5033085;28;20073;-64
2023/05/22 07:12:11;;;;;;;18.90;15.75;;;;;21.80;98275.00;;;;5033172;28;20076;-65
2023/05/22 07:14:38;;;;;;;17.30;15.52;;;;;21.90;98279.00;;;;5033221;28;20053;-64
2023/05/22 07:17:05;;;;;;;18.55;14.65;;;;;22.00;98283.00;;;;5033249;28;20053;-65
2023/05/22 07:19:38;;;;;;;18.23;14.75;;;;;22.10;98283.00;;;;5034327;28;20045;-64
2023/05/22 07:22:04;;;;;;;17.90;15.32;;;;;22.20;98283.00;;;;5033210;28;20045;-64
2023/05/22 07:24:33;;;;;;;16.50;13.98;;;;;22.30;98283.00;;;;5033196;28;20052;-64
2023/05/22 07:27:02;;;;;;;15.63;13.95;;;;;22.40;98281.00;;;;5033247;28;20103;-65
2023/05/22 07:29:29;;;;;;;17.08;15.32;;;;;22.50;98281.00;;;;5032725;28;20092;-64
2023/05/22 07:31:57;;;;;;;15.68;13.98;;;;;22.70;98283.00;;;;5033220;28;20091;-65
2023/05/22 07:34:33;;;;;;;15.00;13.32;;;;;22.80;98280.00;;;;5034144;28;20048;-65
2023/05/22 07:37:10;;;;;;;18.88;14.30;;;;;22.90;98283.00;;;;5032968;28;20049;-64
2023/05/22 07:39:37;;;;;;;17.70;14.45;;;;;22.90;98286.00;;;;5016179;28;20045;-63
2023/05/22 07:42:05;;;;;;;17.25;14.55;;;;;22.90;98286.00;;;;5032906;28;20045;-64
2023/05/22 07:44:37;;;;;;;15.43;13.77;;;;;23.00;98281.00;;;;5032685;28;20049;-63
2023/05/22 07:47:04;;;;;;;16.95;14.90;;;;;23.00;98289.00;;;;5032792;28;20136;-64
2023/05/22 07:49:32;;;;;;;15.40;13.80;;;;;23.20;98292.00;;;;5032507;28;20099;-64
2023/05/22 07:52:00;;;;;;;16.98;13.57;;;;;23.30;98294.00;;;;5032605;28;20095;-65
2023/05/22 07:54:27;;;;;;;16.48;14.65;;;;;23.30;98289.00;;;;5032820;28;20049;-64
2023/05/22 07:56:54;;;;;;;14.18;12.73;;;;;23.50;98297.00;;;;5033403;28;20045;-64
2023/05/22 07:59:24;;;;;;;16.02;14.32;;;;;23.70;98296.00;;;;5033185;28;20045;-65
2023/05/22 08:01:53;;;;;;;16.25;14.55;;;;;23.80;98291.00;;;;5033165;28;20502;-64
2023/05/22 08:04:21;;;;;;;16.08;14.25;;;;;23.80;98296.00;;;;5033929;28;20495;-64
2023/05/22 08:06:48;;;;;;;15.45;13.40;;;;;23.80;98304.00;;;;5034338;28;20045;-65
2023/05/22 08:09:16;;;;;;;17.50;13.32;;;;;24.00;98297.00;;;;5033427;28;20050;-65
2023/05/22 08:11:42;;;;;;;13.35;12.00;;;;;24.20;98306.00;;;;5033253;28;20071;-65
2023/05/22 08:14:09;;;;;;;13.50;12.13;;;;;24.40;98305.00;;;;5032005;28;20055;-65
2023/05/22 08:16:36;;;;;;;16.60;13.50;;;;;24.30;98301.00;;;;5033540;28;20515;-65
2023/05/22 08:19:02;;;;;;;13.90;12.38;;;;;24.50;98304.00;;;;5033057;28;20114;-65
2023/05/22 08:21:31;;;;;;;16.95;12.60;;;;;24.60;98298.00;;;;5033308;28;20544;-64
2023/05/22 08:23:58;;;;;;;14.40;12.45;;;;;24.70;98299.00;;;;5033182;28;20052;-65
2023/05/22 08:26:25;;;;;;;14.45;13.05;;;;;24.80;98301.00;;;;5031950;28;20145;-65
2023/05/22 08:28:52;;;;;;;15.85;12.48;;;;;24.90;98293.00;;;;5032871;28;20037;-65
2023/05/22 08:31:18;;;;;;;13.95;12.65;;;;;25.00;98298.00;;;;5032879;28;20033;-64
2023/05/22 08:33:45;;;;;;;14.05;12.35;;;;;25.10;98301.00;;;;5032915;28;20049;-64
2023/05/22 08:36:12;;;;;;;14.63;12.32;;;;;25.20;98293.00;;;;5032738;28;20048;-64
2023/05/22 08:38:38;;;;;;;13.02;11.63;;;;;25.30;98304.00;;;;5031585;28;20147;-65
2023/05/22 08:41:07;;;;;;;14.35;12.35;;;;;25.30;98294.00;;;;5032566;28;20124;-64
2023/05/22 08:43:34;;;;;;;13.30;12.00;;;;;25.40;98296.00;;;;5032844;28;20053;-64
2023/05/22 08:46:05;;;;;;;12.85;11.45;;;;;25.50;98293.00;;;;5032580;28;20046;-63
2023/05/22 08:48:32;;;;;;;13.43;11.98;;;;;25.50;98294.00;;;;5032719;28;20049;-63
2023/05/22 08:51:04;;;;;;;12.82;11.52;;;;;25.70;98297.00;;;;5031643;28;20073;-63
2023/05/22 08:53:35;;;;;;;17.80;10.98;;;;;25.80;98294.00;;;;5032598;28;20072;-64
2023/05/22 08:56:05;;;;;;;13.98;12.25;;;;;25.80;98293.00;;;;5032500;28;20042;-64
2023/05/22 08:58:34;;;;;;;12.68;11.30;;;;;25.90;98289.00;;;;5032398;28;20053;-64
2023/05/22 09:01:03;;;;;;;12.40;11.13;;;;;26.00;98288.00;;;;5032173;28;20120;-63
2023/05/22 09:03:33;;;;;;;13.32;12.07;;;;;26.10;98290.00;;;;5032596;28;20417;-64
2023/05/22 09:06:01;;;;;;;13.20;11.90;;;;;26.20;98293.00;;;;5032214;28;20045;-63
2023/05/22 09:08:27;;;;;;;13.27;11.88;;;;;26.20;98298.00;;;;5032239;28;20128;-64
2023/05/22 09:10:55;;;;;;;15.43;12.23;;;;;26.30;98298.00;;;;5031457;28;20073;-64
2023/05/22 09:13:29;;;;;;;13.80;12.40;;;;;26.30;98296.00;;;;5032150;28;20045;-64
2023/05/22 09:16:08;;;;;;;13.70;12.27;;;;;26.50;98303.00;;;;5032317;28;20067;-63
2023/05/22 09:18:38;;;;;;;14.30;12.48;;;;;26.20;98294.00;;;;5032140;28;20049;-62
2023/05/22 09:21:09;;;;;;;13.75;11.82;;;;;26.10;98294.00;;;;5032310;28;20064;-62
2023/05/22 09:23:59;;;;;;;13.10;11.85;;;;;26.30;98297.00;;;;5032112;28;20111;-62
2023/05/22 09:26:29;;;;;;;13.55;11.20;;;;;26.50;98298.00;;;;5032182;28;20073;-62
2023/05/22 09:28:58;;;;;;;13.70;11.82;;;;;26.50;98297.00;;;;5030803;28;20124;-62
2023/05/22 09:31:24;;;;;;;13.43;12.02;;;;;26.40;98293.00;;;;5032002;28;20073;-62
2023/05/22 09:33:52;;;;;;;13.38;12.05;;;;;26.60;98297.00;;;;5031979;28;20103;-62
2023/05/22 09:36:19;;;;;;;12.50;11.30;;;;;26.70;98289.00;;;;5032070;28;20045;-62
2023/05/22 09:38:46;;;;;;;13.50;11.82;;;;;26.80;98291.00;;;;5031947;28;20487;-62
2023/05/22 09:41:12;;;;;;;12.90;11.50;;;;;26.70;98292.00;;;;5031731;28;20392;-62
2023/05/22 09:43:48;;;;;;;13.15;11.85;;;;;26.60;98291.00;;;;5032129;28;20449;-62
2023/05/22 09:46:15;;;;;;;15.32;11.77;;;;;26.70;98300.00;;;;5032182;28;20498;-62
2023/05/22 09:48:42;;;;;;;12.13;10.55;;;;;26.80;98297.00;;;;5031914;28;20060;-62
2023/05/22 09:51:10;;;;;;;10.73;9.73;;;;;26.90;98283.00;;;;5030467;28;20484;-62
2023/05/22 09:53:39;;;;;;;11.07;10.07;;;;;26.80;98286.00;;;;5031900;28;20046;-62
2023/05/22 09:56:12;;;;;;;10.65;9.57;;;;;27.00;98296.00;;;;5031520;28;20064;-62
2023/05/22 09:58:42;;;;;;;14.00;10.40;;;;;27.10;98286.00;;;;5031885;28;20045;-62
2023/05/22 10:01:12;;;;;;;12.30;10.98;;;;;27.10;98285.00;;;;5032628;28;20045;-62
2023/05/22 10:03:41;;;;;;;11.82;10.68;;;;;27.20;98286.00;;;;5035766;28;20449;-62
2023/05/22 10:06:11;;;;;;;10.82;9.82;;;;;27.20;98285.00;;;;5035509;28;20046;-63
2023/05/22 10:08:42;;;;;;;11.95;10.15;;;;;27.20;98285.00;;;;5035651;28;20069;-61
2023/05/22 10:11:10;;;;;;;11.90;9.55;;;;;27.20;98283.00;;;;5035315;28;20045;-62
2023/05/22 10:13:37;;;;;;;11.57;10.35;;;;;27.30;98275.00;;;;5035435;28;20060;-62
2023/05/22 10:16:06;;;;;;;10.52;9.52;;;;;27.40;98278.00;;;;5035705;28;20098;-62
2023/05/22 10:18:33;;;;;;;10.88;9.88;;;;;27.50;98264.00;;;;5035865;28;20096;-62
2023/05/22 10:21:00;;;;;;;10.82;9.20;;;;;27.60;98271.00;;;;5035928;28;20048;-62
2023/05/22 10:23:27;;;;;;;10.75;9.52;;;;;27.70;98269.00;;;;5037394;28;20050;-61
2023/05/22 10:25:54;;;;;;;10.77;9.68;;;;;27.70;98271.00;;;;5038471;28;20574;-63
2023/05/22 10:28:26;;;;;;;10.95;9.73;;;;;27.60;98270.00;;;;5038477;28;20104;-62
2023/05/22 10:31:03;;;;;;;10.13;9.10;;;;;27.60;98264.00;;;;5037057;28;20142;-61
2023/05/22 10:33:58;;;;;;;11.00;9.88;;;;;27.60;98258.00;;;;5035853;28;20052;-61
2023/05/22 10:36:46;;;;;;;10.00;9.00;;;;;27.60;98270.00;;;;5036656;28;20049;-64
2023/05/22 10:39:20;;;;;;;10.60;9.18;;;;;27.70;98275.00;;;;5036581;28;20132;-65
2023/05/22 10:41:47;;;;;;;10.35;9.25;;;;;27.70;98271.00;;;;5035838;28;20125;-64
2023/05/22 10:44:14;;;;;;;10.48;9.48;;;;;27.70;98273.00;;;;5035813;28;20049;-64
2023/05/22 10:46:47;;;;;;;10.32;9.23;;;;;27.70;98261.00;;;;5036256;28;20120;-64
2023/05/22 10:49:24;;;;;;;11.32;9.70;;;;;27.80;98256.00;;;;5034492;28;20045;-64
2023/05/22 10:51:55;;;;;;;11.82;9.80;;;;;27.90;98255.00;;;;5035821;28;20065;-64
2023/05/22 10:54:41;;;;;;;10.20;9.05;;;;;28.10;98256.00;;;;5036254;28;20100;-63
2023/05/22 10:57:12;;;;;;;10.30;9.18;;;;;28.20;98254.00;;;;5035777;28;20120;-63
2023/05/22 10:59:38;;;;;;;10.52;8.40;;;;;28.10;98253.00;;;;5035656;28;20052;-63
2023/05/22 11:02:20;;;;;;;9.85;8.35;;;;;28.10;98255.00;;;;5036640;28;20506;-64
2023/05/22 11:04:48;;;;;;;11.88;8.90;;;;;28.10;98246.00;;;;5037172;28;20414;-65
2023/05/22 11:07:14;;;;;;;9.80;8.23;;;;;28.20;98248.00;;;;5037193;28;20038;-64
2023/05/22 11:09:44;;;;;;;16.23;9.07;;;;;28.20;98253.00;;;;5036162;28;20208;-63
2023/05/22 11:12:24;;;;;;;9.40;7.88;;;;;28.30;98250.00;;;;5035043;28;20086;-64
2023/05/22 11:14:55;;;;;;;9.68;8.68;;;;;28.40;98241.00;;;;5034232;28;20049;-63
2023/05/22 11:17:37;;;;;;;9.50;8.02;;;;;28.40;98242.00;;;;5035208;28;20053;-65
2023/05/22 11:20:12;;;;;;;9.98;8.45;;;;;28.40;98241.00;;;;5034380;28;20056;-65
2023/05/22 11:22:48;;;;;;;8.77;7.88;;;;;28.50;98238.00;;;;5034636;28;20044;-64
2023/05/22 11:25:17;;;;;;;11.40;7.93;;;;;28.60;98237.00;;;;5034449;28;20135;-64
2023/05/22 11:27:45;;;;;;;8.85;7.97;;;;;28.60;98230.00;;;;5034563;28;20447;-63
2023/05/22 11:30:12;;;;;;;8.45;7.65;;;;;28.60;98233.00;;;;5034117;28;20045;-63
2023/05/22 11:32:43;;;;;;;8.27;7.35;;;;;28.60;98233.00;;;;5034380;28;20478;-64
2023/05/22 11:35:18;;;;;;;9.57;8.45;;;;;28.70;98232.00;;;;5034336;28;20057;-64
2023/05/22 11:37:45;;;;;;;8.73;7.85;;;;;28.70;98237.00;;;;5034234;28;20045;-64
2023/05/22 11:40:14;;;;;;;9.68;7.63;;;;;28.70;98226.00;;;;5032659;28;20050;-63
2023/05/22 11:42:41;;;;;;;8.18;7.35;;;;;28.80;98233.00;;;;5034104;28;20037;-64
2023/05/22 11:45:08;;;;;;;8.07;7.28;;;;;28.90;98232.00;;;;5032921;28;20556;-63
2023/05/22 11:47:36;;;;;;;10.75;7.22;;;;;28.80;98233.00;;;;5016650;28;20077;-64
2023/05/22 11:50:05;;;;;;;8.88;7.97;;;;;28.80;98224.00;;;;5034193;28;20124;-64
2023/05/22 11:52:33;;;;;;;8.68;7.78;;;;;28.70;98229.00;;;;5034498;28;20046;-64
2023/05/22 11:55:00;;;;;;;9.35;7.25;;;;;28.50;98226.00;;;;5034511;28;20132;-65
2023/05/22 11:57:27;;;;;;;7.93;7.18;;;;;28.50;98232.00;;;;5033699;28;20478;-63
2023/05/22 11:59:53;;;;;;;10.45;7.10;;;;;28.60;98224.00;;;;5034728;28;20053;-64
2023/05/22 12:02:20;;;;;;;8.77;7.53;;;;;28.70;98226.00;;;;5035138;28;20109;-63
2023/05/22 12:04:46;;;;;;;7.97;7.20;;;;;28.70;98224.00;;;;5032531;28;20076;-64
2023/05/22 12:07:13;;;;;;;7.95;7.18;;;;;28.60;98217.00;;;;5034461;28;20045;-63
2023/05/22 12:09:41;;;;;;;7.78;6.97;;;;;28.70;98216.00;;;;5034149;28;20140;-64
2023/05/22 12:12:10;;;;;;;8.70;7.70;;;;;28.70;98213.00;;;;5034321;28;20129;-63
2023/05/22 12:14:37;;;;;;;8.32;7.40;;;;;28.60;98213.00;;;;5034139;28;20495;-63